Time;durP1;ratioP1;P1;durP2;ratioP2;P2;SDS_P1;SDS_P2;PMS_P1;PMS_P2;Temp;Humidity;BMP_temperature;BMP_pressure;BME280_temperature;BME280_humidity;BME280_pressure;Samples;Min_cycle;Max_cycle;Signal;HPM_P1;HPM_P2
2023/05/17 00:00:32;;;;;;;0.40;0.40;;;;;;;11.40;56.14;99794.19;5048481;28;20046;-79
2023/05/17 00:03:00;;;;;;;0.40;0.40;;;;;;;11.42;56.54;99797.44;5032906;28;20045;-80
2023/05/17 00:05:27;;;;;;;0.40;0.40;;;;;;;11.43;56.36;99801.81;5032856;28;21025;-79
2023/05/17 00:07:57;;;;;;;0.40;0.40;;;;;;;11.39;56.39;99798.75;5032883;28;20076;-80
2023/05/17 00:10:26;;;;;;;0.40;0.40;;;;;;;11.43;56.12;99799.13;5031416;28;20049;-80
2023/05/17 00:12:54;;;;;;;0.40;0.40;;;;;;;11.51;55.47;99796.09;5031882;28;20041;-79
2023/05/17 00:15:24;;;;;;;0.40;0.40;;;;;;;11.48;55.32;99791.16;5030988;28;20054;-80
2023/05/17 00:17:51;;;;;;;0.43;0.43;;;;;;;11.55;55.62;99804.56;5032842;28;20059;-79
2023/05/17 00:20:18;;;;;;;0.40;0.40;;;;;;;11.52;55.37;99797.75;5032466;28;20049;-80
2023/05/17 00:22:49;;;;;;;0.40;0.40;;;;;;;11.49;55.29;99811.69;5031258;28;20045;-79
2023/05/17 00:25:16;;;;;;;0.40;0.40;;;;;;;11.42;55.57;99802.84;5015147;28;20050;-80
2023/05/17 00:27:46;;;;;;;0.40;0.40;;;;;;;11.36;55.85;99809.19;5031599;28;20140;-80
2023/05/17 00:30:14;;;;;;;0.43;0.43;;;;;;;11.30;56.01;99818.25;5031198;28;20053;-78
2023/05/17 00:32:41;;;;;;;0.40;0.40;;;;;;;11.27;56.35;99820.34;5047899;28;20041;-79
2023/05/17 00:35:10;;;;;;;0.40;0.40;;;;;;;11.25;56.19;99818.91;5031950;28;20084;-80
2023/05/17 00:37:37;;;;;;;0.40;0.40;;;;;;;11.12;56.12;99806.41;5047839;28;20048;-78
2023/05/17 00:40:05;;;;;;;0.40;0.40;;;;;;;11.22;56.08;99825.59;5032302;28;20428;-78
2023/05/17 00:42:35;;;;;;;0.40;0.40;;;;;;;11.14;56.34;99815.13;5032152;28;20041;-82
2023/05/17 00:45:02;;;;;;;0.40;0.40;;;;;;;11.23;56.12;99821.84;5031009;28;20049;-80
2023/05/17 00:47:31;;;;;;;0.40;0.40;;;;;;;11.24;56.01;99823.50;5031758;28;20065;-80
2023/05/17 00:49:59;;;;;;;0.40;0.40;;;;;;;11.25;56.00;99827.84;5032283;28;20091;-80
2023/05/17 00:52:31;;;;;;;0.50;0.50;;;;;;;11.25;55.96;99825.16;5031694;28;20510;-80
2023/05/17 00:54:58;;;;;;;0.50;0.50;;;;;;;11.18;56.00;99826.28;5030753;28;20087;-80
2023/05/17 00:57:25;;;;;;;0.43;0.43;;;;;;;11.20;56.21;99837.69;5031749;28;20056;-80
2023/05/17 00:59:54;;;;;;;0.40;0.40;;;;;;;11.25;55.86;99829.72;5030791;28;20520;-80
2023/05/17 01:02:23;;;;;;;0.40;0.40;;;;;;;11.26;55.70;99826.78;5030393;28;20064;-80
2023/05/17 01:04:50;;;;;;;0.50;0.50;;;;;;;11.21;55.94;99836.63;5031744;28;20160;-79
2023/05/17 01:07:18;;;;;;;0.50;0.50;;;;;;;11.07;56.64;99833.28;5030527;28;20542;-78
2023/05/17 01:09:47;;;;;;;0.50;0.50;;;;;;;10.91;56.97;99818.50;5030898;28;20504;-79
2023/05/17 01:12:36;;;;;;;0.50;0.50;;;;;;;11.01;57.10;99839.59;5013590;28;20049;-79
2023/05/17 01:15:35;;;;;;;0.50;0.50;;;;;;;10.99;57.09;99839.00;5031915;28;20060;-79
2023/05/17 01:18:04;;;;;;;0.50;0.50;;;;;;;10.89;57.71;99839.53;5013221;28;20056;-79
2023/05/17 01:20:36;;;;;;;0.50;0.50;;;;;;;10.80;57.86;99840.88;5030504;28;20046;-80
2023/05/17 01:23:22;;;;;;;0.40;0.40;;;;;;;10.78;57.75;99849.19;5031524;28;20072;-79
2023/05/17 01:26:08;;;;;;;0.40;0.40;;;;;;;10.73;57.99;99843.66;5031479;28;20084;-79
2023/05/17 01:28:38;;;;;;;0.50;0.50;;;;;;;10.63;57.88;99843.34;5031396;28;20471;-80
2023/05/17 01:31:07;;;;;;;0.50;0.50;;;;;;;10.67;58.05;99847.25;5013864;28;20045;-79
2023/05/17 01:33:36;;;;;;;0.50;0.50;;;;;;;10.63;57.94;99838.78;5031241;28;20073;-79
2023/05/17 01:36:04;;;;;;;0.40;0.40;;;;;;;10.62;57.98;99839.00;5031266;28;20060;-80
2023/05/17 01:38:36;;;;;;;0.50;0.50;;;;;;;10.66;58.10;99850.16;5031402;28;20492;-80
2023/05/17 01:41:39;;;;;;;0.50;0.50;;;;;;;10.73;58.30;99859.03;5030539;28;20489;-80
2023/05/17 01:44:17;;;;;;;0.50;0.50;;;;;;;10.71;58.50;99855.72;5030411;28;20053;-79
2023/05/17 01:46:50;;;;;;;0.40;0.40;;;;;;;10.64;58.41;99845.00;5046255;28;20057;-79
2023/05/17 01:49:23;;;;;;;0.50;0.50;;;;;;;10.74;58.36;99849.91;5045935;28;20595;-79
2023/05/17 01:51:53;;;;;;;0.40;0.40;;;;;;;10.75;58.21;99856.94;5030578;28;20111;-79
2023/05/17 01:54:22;;;;;;;0.50;0.50;;;;;;;10.74;58.00;99853.41;5030306;28;20057;-80
2023/05/17 01:56:58;;;;;;;0.50;0.50;;;;;;;10.69;58.16;99857.84;5032231;28;20616;-79
2023/05/17 01:59:25;;;;;;;0.40;0.40;;;;;;;10.70;58.05;99859.47;5029576;28;20056;-80
2023/05/17 02:01:56;;;;;;;0.40;0.40;;;;;;;10.71;58.20;99855.72;5029757;28;20440;-80
2023/05/17 02:04:23;;;;;;;0.50;0.50;;;;;;;10.75;58.43;99862.34;5029097;28;20095;-80
2023/05/17 02:06:51;;;;;;;0.50;0.50;;;;;;;10.76;58.34;99859.41;5030887;28;20057;-80
2023/05/17 02:09:18;;;;;;;0.50;0.50;;;;;;;10.79;58.36;99863.53;5030677;28;20420;-80
2023/05/17 02:11:45;;;;;;;0.50;0.50;;;;;;;10.83;58.39;99865.53;5046468;28;20069;-79
2023/05/17 02:14:13;;;;;;;0.47;0.47;;;;;;;10.82;58.13;99855.81;5030289;28;20045;-81
2023/05/17 02:16:40;;;;;;;0.50;0.50;;;;;;;10.88;57.89;99861.34;5030522;28;20599;-80
2023/05/17 02:19:08;;;;;;;0.40;0.40;;;;;;;10.93;57.87;99867.72;5030661;28;20516;-79
2023/05/17 02:21:35;;;;;;;0.50;0.50;;;;;;;11.00;57.84;99870.34;5046045;28;20049;-79
2023/05/17 02:24:02;;;;;;;0.45;0.45;;;;;;;11.07;57.34;99861.13;5030210;28;20061;-79
2023/05/17 02:26:30;;;;;;;0.50;0.50;;;;;;;11.12;57.11;99852.34;5030354;28;20483;-79
2023/05/17 02:28:57;;;;;;;0.50;0.50;;;;;;;11.23;56.45;99867.78;5031591;28;20144;-79
2023/05/17 02:31:25;;;;;;;0.50;0.50;;;;;;;11.30;56.29;99867.69;5031210;28;20045;-79
2023/05/17 02:33:53;;;;;;;0.50;0.50;;;;;;;11.33;56.39;99867.22;5030469;28;20103;-80
2023/05/17 02:36:22;;;;;;;0.50;0.50;;;;;;;11.35;55.98;99867.03;5029821;28;20096;-80
2023/05/17 02:38:49;;;;;;;0.50;0.50;;;;;;;11.48;55.87;99866.81;5029521;28;20132;-80
2023/05/17 02:41:19;;;;;;;0.50;0.50;;;;;;;11.55;55.45;99867.56;5030502;28;20562;-79
2023/05/17 02:43:49;;;;;;;0.50;0.50;;;;;;;11.59;55.53;99871.44;5029099;28;20140;-79
2023/05/17 02:46:16;;;;;;;0.50;0.50;;;;;;;11.61;55.37;99869.34;5028744;28;20056;-79
2023/05/17 02:48:44;;;;;;;0.50;0.50;;;;;;;11.66;55.10;99874.88;5030018;28;20049;-79
2023/05/17 02:51:12;;;;;;;0.50;0.50;;;;;;;11.77;54.91;99873.25;5030118;28;20053;-79
2023/05/17 02:53:40;;;;;;;0.50;0.50;;;;;;;11.80;54.80;99871.97;5045471;28;20065;-77
2023/05/17 02:56:08;;;;;;;0.50;0.50;;;;;;;11.92;54.57;99883.69;5028329;28;20053;-78
2023/05/17 02:58:38;;;;;;;0.50;0.50;;;;;;;11.95;54.45;99868.84;5045152;28;20046;-80
2023/05/17 03:01:05;;;;;;;0.40;0.40;;;;;;;12.03;54.39;99879.38;5045461;28;20076;-80
2023/05/17 03:03:32;;;;;;;0.40;0.40;;;;;;;12.10;54.23;99886.31;5028661;28;20107;-80
2023/05/17 03:06:03;;;;;;;0.50;0.50;;;;;;;12.09;54.24;99865.72;5028826;28;20508;-81
2023/05/17 03:08:34;;;;;;;0.50;0.50;;;;;;;12.21;53.82;99879.25;5012290;28;20049;-79
2023/05/17 03:11:02;;;;;;;0.50;0.50;;;;;;;12.27;53.43;99869.38;5029306;28;20124;-80
2023/05/17 03:13:30;;;;;;;0.50;0.50;;;;;;;12.37;53.42;99885.88;5028491;28;20136;-80
2023/05/17 03:16:00;;;;;;;0.40;0.40;;;;;;;12.45;53.59;99880.09;5029918;28;20067;-79
2023/05/17 03:18:27;;;;;;;0.40;0.40;;;;;;;12.54;53.09;99880.56;5028616;28;20075;-80
2023/05/17 03:20:56;;;;;;;0.40;0.40;;;;;;;12.65;52.72;99874.31;4996251;28;20486;-80
2023/05/17 03:23:24;;;;;;;0.40;0.40;;;;;;;12.72;52.58;99866.91;5028533;28;20708;-80
2023/05/17 03:26:00;;;;;;;0.40;0.40;;;;;;;12.84;52.27;99880.44;5028848;28;20041;-79
2023/05/17 03:28:32;;;;;;;0.40;0.40;;;;;;;12.91;52.64;99883.00;5045042;28;20045;-80
2023/05/17 03:30:59;;;;;;;0.40;0.40;;;;;;;12.93;52.14;99873.56;5028414;28;20136;-80
2023/05/17 03:33:31;;;;;;;0.50;0.50;;;;;;;13.09;51.69;99884.72;5044970;28;20053;-81
2023/05/17 03:35:59;;;;;;;0.40;0.40;;;;;;;13.16;51.49;99883.53;5028592;28;20509;-80
2023/05/17 03:38:30;;;;;;;0.40;0.40;;;;;;;13.28;51.45;99888.94;5028695;28;20458;-80
2023/05/17 03:41:00;;;;;;;0.40;0.40;;;;;;;13.38;51.11;99889.16;5045215;28;20054;-81
2023/05/17 03:43:27;;;;;;;0.40;0.40;;;;;;;13.42;50.56;99887.63;5029147;28;20114;-82
2023/05/17 03:45:59;;;;;;;0.40;0.40;;;;;;;13.50;50.12;99883.69;5028600;28;20049;-81
2023/05/17 03:48:28;;;;;;;0.30;0.30;;;;;;;13.68;50.03;99890.00;5030752;28;20057;-80
2023/05/17 03:51:00;;;;;;;0.40;0.40;;;;;;;13.77;49.83;99889.31;5031947;28;20045;-81
2023/05/17 03:53:27;;;;;;;0.50;0.50;;;;;;;13.86;49.11;99897.91;5015213;28;20097;-82
2023/05/17 03:55:57;;;;;;;0.38;0.38;;;;;;;13.96;49.18;99898.09;5028582;28;20045;-81
2023/05/17 03:58:24;;;;;;;0.40;0.40;;;;;;;14.04;48.82;99891.44;5028437;28;20076;-84
2023/05/17 04:00:51;;;;;;;0.40;0.40;;;;;;;14.14;49.07;99899.75;5028071;28;20061;-81
2023/05/17 04:03:19;;;;;;;0.40;0.40;;;;;;;14.24;48.67;99899.09;5011504;28;20063;-82
2023/05/17 04:05:47;;;;;;;0.40;0.40;;;;;;;14.28;48.56;99906.50;5026589;28;20049;-81
2023/05/17 04:08:34;;;;;;;0.40;0.40;;;;;;;14.37;48.42;99906.09;5012739;28;20053;-81
2023/05/17 04:11:22;;;;;;;0.40;0.40;;;;;;;14.39;48.36;99901.22;5027225;28;20603;-79
2023/05/17 04:13:50;;;;;;;0.40;0.40;;;;;;;14.52;48.25;99907.13;4993929;28;20049;-82
2023/05/17 04:16:18;;;;;;;0.30;0.30;;;;;;;14.64;48.17;99920.66;5008644;28;20065;-81
2023/05/17 04:18:46;;;;;;;0.40;0.40;;;;;;;14.73;47.98;99913.72;5011093;28;20041;-79
2023/05/17 04:21:16;;;;;;;0.40;0.40;;;;;;;14.83;48.28;99912.22;5029719;28;20087;-80
2023/05/17 04:23:44;;;;;;;0.40;0.40;;;;;;;14.90;47.90;99916.41;5013419;28;20128;-80
2023/05/17 04:26:11;;;;;;;0.40;0.40;;;;;;;15.00;48.21;99913.00;5029312;28;20057;-79
2023/05/17 04:28:40;;;;;;;0.40;0.40;;;;;;;15.10;47.72;99921.28;5029757;28;20128;-79
2023/05/17 04:31:27;;;;;;;0.40;0.40;;;;;;;15.15;47.42;99923.25;5029213;28;20053;-79
2023/05/17 04:33:55;;;;;;;0.40;0.40;;;;;;;15.24;47.36;99915.47;5029388;28;20042;-79
2023/05/17 04:36:25;;;;;;;0.40;0.40;;;;;;;15.30;47.27;99923.47;5016293;28;20049;-80
2023/05/17 04:38:53;;;;;;;0.40;0.40;;;;;;;15.37;47.08;99912.41;5030431;28;20049;-81
2023/05/17 04:41:24;;;;;;;0.40;0.40;;;;;;;15.50;47.24;99916.63;5029921;28;20057;-79
2023/05/17 04:44:11;;;;;;;0.40;0.40;;;;;;;15.63;46.52;99923.56;5027342;28;20136;-81
2023/05/17 04:46:42;;;;;;;0.35;0.35;;;;;;;15.61;46.48;99912.94;5029487;28;20053;-81
2023/05/17 04:49:11;;;;;;;0.40;0.40;;;;;;;15.67;46.45;99914.59;5029897;28;20064;-81
2023/05/17 04:51:44;;;;;;;0.40;0.40;;;;;;;15.82;46.12;99919.44;5028683;28;20508;-81
2023/05/17 04:54:12;;;;;;;0.40;0.40;;;;;;;15.92;46.08;99922.25;5012376;28;20045;-80
2023/05/17 04:56:39;;;;;;;0.32;0.32;;;;;;;15.99;46.20;99909.25;5026758;28;20234;-81
2023/05/17 04:59:13;;;;;;;0.33;0.33;;;;;;;16.17;45.33;99927.13;5026762;28;20397;-80
2023/05/17 05:01:40;;;;;;;0.30;0.30;;;;;;;16.23;45.18;99923.38;5021856;28;20060;-80
2023/05/17 05:04:08;;;;;;;0.30;0.30;;;;;;;16.25;44.93;99920.38;5034121;28;20489;-82
2023/05/17 05:06:40;;;;;;;0.40;0.40;;;;;;;16.23;45.07;99898.84;5010269;28;20045;-82
2023/05/17 05:09:11;;;;;;;0.40;0.40;;;;;;;16.51;45.01;99926.00;5024686;28;20096;-82
2023/05/17 05:11:39;;;;;;;0.30;0.30;;;;;;;16.55;44.88;99911.63;5006258;28;20060;-82
2023/05/17 05:14:07;;;;;;;0.40;0.40;;;;;;;16.63;45.12;99915.75;5015014;28;20145;-81
2023/05/17 05:16:35;;;;;;;0.30;0.30;;;;;;;16.79;44.92;99919.44;5021155;28;20132;-83
2023/05/17 05:19:03;;;;;;;0.30;0.30;;;;;;;16.95;44.13;99925.81;5019433;28;20549;-81
2023/05/17 05:21:31;;;;;;;0.30;0.30;;;;;;;16.94;43.50;99929.59;5024708;28;20103;-82
2023/05/17 05:23:59;;;;;;;0.30;0.30;;;;;;;16.92;43.55;99927.16;5023194;28;20045;-82
2023/05/17 05:26:26;;;;;;;0.30;0.30;;;;;;;17.08;43.66;99922.59;5026128;28;20566;-83
2023/05/17 05:28:57;;;;;;;0.40;0.40;;;;;;;17.18;43.39;99922.66;5027635;28;20045;-82
2023/05/17 05:31:25;;;;;;;0.40;0.40;;;;;;;17.24;42.48;99918.88;5028442;28;20068;-80
2023/05/17 05:34:14;;;;;;;0.40;0.40;;;;;;;17.28;42.33;99922.69;5007996;28;20049;-82
2023/05/17 05:36:42;;;;;;;0.30;0.30;;;;;;;17.26;42.07;99922.13;5024734;28;20053;-83
2023/05/17 05:39:11;;;;;;;0.30;0.30;;;;;;;17.21;42.42;99905.75;5024173;28;20459;-83
2023/05/17 05:41:38;;;;;;;0.40;0.40;;;;;;;17.34;42.74;99931.72;5009421;28;20057;-82
2023/05/17 05:44:06;;;;;;;0.30;0.30;;;;;;;17.42;42.71;99914.84;5009505;28;20095;-82
2023/05/17 05:46:34;;;;;;;0.30;0.30;;;;;;;17.66;42.41;99931.56;4991913;28;20049;-81
2023/05/17 05:49:03;;;;;;;0.40;0.40;;;;;;;17.80;41.80;99921.00;5025756;28;20056;-81
2023/05/17 05:51:51;;;;;;;0.30;0.30;;;;;;;17.86;41.62;99927.28;5020492;28;20049;-80
2023/05/17 05:54:23;;;;;;;0.30;0.30;;;;;;;17.91;41.58;99927.28;5005725;28;20067;-80
2023/05/17 05:56:52;;;;;;;0.30;0.30;;;;;;;17.91;41.26;99930.00;4663720;28;9999780;-81
2023/05/17 05:59:21;;;;;;;0.30;0.30;;;;;;;17.97;40.44;99916.06;5026549;28;20140;-81
2023/05/17 06:01:48;;;;;;;0.30;0.30;;;;;;;18.02;40.70;99923.47;5028604;28;20389;-79
2023/05/17 06:04:15;;;;;;;0.30;0.30;;;;;;;18.15;40.32;99936.59;5043436;28;20051;-80
2023/05/17 06:06:42;;;;;;;0.30;0.30;;;;;;;18.28;41.26;99920.75;5032675;28;20053;-81
2023/05/17 06:09:13;;;;;;;0.40;0.40;;;;;;;18.53;40.89;99928.13;5026524;28;20467;-81
2023/05/17 06:11:40;;;;;;;0.30;0.30;;;;;;;18.56;40.01;99927.56;5011409;28;20088;-80
2023/05/17 06:14:10;;;;;;;0.30;0.30;;;;;;;18.52;40.30;99905.44;5028645;28;20060;-82
2023/05/17 06:16:39;;;;;;;0.30;0.30;;;;;;;18.81;39.51;99929.47;5011187;28;20045;-82
2023/05/17 06:19:08;;;;;;;0.30;0.30;;;;;;;18.69;38.76;99921.56;5029092;28;20527;-81
2023/05/17 06:21:35;;;;;;;0.30;0.30;;;;;;;18.72;38.16;99931.94;5029987;28;20492;-79
2023/05/17 06:24:03;;;;;;;0.30;0.30;;;;;;;18.70;36.95;99925.09;5028435;28;20156;-79
2023/05/17 06:26:31;;;;;;;0.30;0.30;;;;;;;18.70;36.94;99938.78;5026031;28;20081;-78
2023/05/17 06:29:01;;;;;;;0.30;0.30;;;;;;;18.64;37.21;99927.03;5028160;28;20419;-79
2023/05/17 06:31:28;;;;;;;0.30;0.30;;;;;;;18.75;36.14;99936.88;5028302;28;20565;-78
2023/05/17 06:34:01;;;;;;;0.30;0.30;;;;;;;18.73;36.78;99940.94;5029467;28;20053;-78
2023/05/17 06:36:28;;;;;;;0.30;0.30;;;;;;;18.76;36.61;99954.94;5028329;28;20088;-79
2023/05/17 06:38:58;;;;;;;0.30;0.30;;;;;;;18.80;36.10;99944.25;5028816;28;20049;-80
2023/05/17 06:41:25;;;;;;;0.30;0.30;;;;;;;18.86;35.55;99936.84;5024917;28;20476;-79
2023/05/17 06:43:57;;;;;;;0.30;0.30;;;;;;;18.90;35.46;99927.81;5021915;28;20050;-79
2023/05/17 06:46:32;;;;;;;0.30;0.30;;;;;;;18.99;35.07;99945.31;5021541;28;20119;-79
2023/05/17 06:49:06;;;;;;;0.30;0.30;;;;;;;18.91;35.68;99940.38;5028571;28;20076;-81
2023/05/17 06:51:41;;;;;;;0.30;0.30;;;;;;;18.91;36.07;99926.72;5027925;28;20136;-80
2023/05/17 06:54:18;;;;;;;0.30;0.30;;;;;;;18.98;35.66;99912.75;5024688;28;20055;-78
2023/05/17 06:56:50;;;;;;;0.30;0.30;;;;;;;19.09;35.60;99925.31;5009663;28;20057;-80
2023/05/17 06:59:18;;;;;;;0.30;0.30;;;;;;;19.19;34.65;99929.91;5029312;28;20049;-80
2023/05/17 07:01:47;;;;;;;0.30;0.30;;;;;;;19.26;34.75;99938.66;5027969;28;20106;-81
2023/05/17 07:04:14;;;;;;;0.30;0.30;;;;;;;19.23;34.91;99950.97;5027721;28;20050;-80
2023/05/17 07:06:42;;;;;;;0.30;0.30;;;;;;;19.27;34.73;99932.91;5027550;28;20099;-80
2023/05/17 07:09:11;;;;;;;0.30;0.30;;;;;;;19.39;34.65;99929.84;5027684;28;20100;-79
2023/05/17 07:11:39;;;;;;;0.30;0.30;;;;;;;19.40;34.44;99941.63;5029579;28;20542;-79
2023/05/17 07:14:25;;;;;;;0.30;0.30;;;;;;;19.44;33.91;99951.72;5025766;28;20041;-80
2023/05/17 07:16:52;;;;;;;0.30;0.30;;;;;;;19.35;34.43;99920.56;5026254;28;20111;-77
2023/05/17 07:19:21;;;;;;;0.30;0.30;;;;;;;19.51;33.95;99934.19;5029100;28;20057;-79
2023/05/17 07:21:48;;;;;;;0.30;0.30;;;;;;;19.70;33.89;99924.25;5031824;28;20103;-79
2023/05/17 07:24:37;;;;;;;0.30;0.30;;;;;;;19.84;33.93;99922.50;5033706;28;20119;-77
2023/05/17 07:27:10;;;;;;;0.30;0.30;;;;;;;19.83;33.61;99939.25;5032266;28;20131;-82
2023/05/17 07:29:37;;;;;;;0.40;0.40;;;;;;;19.77;32.84;99924.75;5026509;28;20068;-81
2023/05/17 07:32:04;;;;;;;0.30;0.30;;;;;;;19.94;32.44;99918.91;5030858;28;20050;-81
2023/05/17 07:34:38;;;;;;;0.30;0.30;;;;;;;20.09;31.86;99927.00;5029813;28;20191;-81
2023/05/17 07:39:53;;;;;;;0.40;0.40;;;;;;;20.25;32.67;99943.34;5027989;28;20081;-80
2023/05/17 07:42:22;;;;;;;0.40;0.40;;;;;;;20.37;31.33;99926.53;5031627;28;20046;-81
2023/05/17 07:44:53;;;;;;;0.40;0.40;;;;;;;20.44;31.64;99940.72;5029967;28;20068;-80
2023/05/17 07:47:21;;;;;;;0.40;0.40;;;;;;;20.59;31.58;99920.63;5024456;28;20515;-80
2023/05/17 07:49:48;;;;;;;0.40;0.40;;;;;;;20.56;30.75;99924.75;5043910;28;20072;-79
2023/05/17 07:52:16;;;;;;;0.40;0.40;;;;;;;20.69;31.27;99909.53;5031214;28;20596;-80
2023/05/17 07:54:46;;;;;;;0.40;0.40;;;;;;;20.66;30.92;99902.72;5025119;28;20095;-80
2023/05/17 07:57:15;;;;;;;0.40;0.40;;;;;;;20.86;31.46;99917.31;5019499;28;20049;-79
2023/05/17 07:59:43;;;;;;;0.40;0.40;;;;;;;21.05;31.02;99933.84;5037281;28;20464;-79
2023/05/17 08:04:56;;;;;;;0.40;0.40;;;;;;;21.34;30.62;99892.59;5019895;28;20053;-80
2023/05/17 08:07:24;;;;;;;0.40;0.40;;;;;;;21.36;30.46;99917.84;5024464;28;20626;-81
2023/05/17 08:09:51;;;;;;;0.40;0.40;;;;;;;21.20;30.34;99912.53;5017616;28;20057;-80
2023/05/17 08:12:20;;;;;;;0.40;0.40;;;;;;;21.11;30.94;99907.97;5019589;28;20081;-80
2023/05/17 08:14:54;;;;;;;0.40;0.40;;;;;;;21.39;30.91;99929.06;5011996;28;20061;-78
2023/05/17 08:17:40;;;;;;;0.40;0.40;;;;;;;21.39;31.01;99933.75;5023395;28;20140;-78
2023/05/17 08:20:26;;;;;;;0.50;0.50;;;;;;;21.61;30.42;99928.50;5014914;28;20144;-79
2023/05/17 08:22:53;;;;;;;0.45;0.45;;;;;;;21.83;30.64;99922.44;5012202;28;20132;-76
2023/05/17 08:25:21;;;;;;;0.40;0.40;;;;;;;22.00;30.17;99912.84;4994797;28;20123;-79
2023/05/17 08:27:48;;;;;;;0.40;0.40;;;;;;;22.23;29.78;99917.47;5022842;28;20046;-80
2023/05/17 08:30:34;;;;;;;0.43;0.43;;;;;;;22.74;29.40;99926.78;5042969;28;20041;-80
2023/05/17 08:33:01;;;;;;;0.50;0.50;;;;;;;22.76;29.11;99904.44;5029953;28;20049;-79
2023/05/17 08:35:30;;;;;;;0.43;0.43;;;;;;;22.99;29.30;99900.75;5029191;28;20077;-80
2023/05/17 08:37:57;;;;;;;0.40;0.40;;;;;;;22.99;28.91;99917.25;5030905;28;20496;-80
2023/05/17 08:40:26;;;;;;;0.40;0.40;;;;;;;22.28;30.12;99919.28;5031722;28;20060;-81
2023/05/17 08:42:54;;;;;;;0.40;0.40;;;;;;;22.33;30.04;99910.16;5030592;28;20052;-81
2023/05/17 08:45:25;;;;;;;0.40;0.40;;;;;;;23.04;29.09;99908.06;5031519;28;20119;-80
2023/05/17 08:47:53;;;;;;;0.35;0.35;;;;;;;23.66;28.51;99902.09;5046580;28;20424;-80
2023/05/17 08:50:24;;;;;;;0.40;0.40;;;;;;;23.37;28.43;99892.25;5046719;28;20087;-80
2023/05/17 08:52:54;;;;;;;0.40;0.40;;;;;;;23.38;29.01;99915.09;5047234;28;20057;-80
2023/05/17 08:55:50;;;;;;;0.40;0.40;;;;;;;23.56;28.43;99898.44;5046029;28;20052;-80
2023/05/17 08:58:28;;;;;;;0.40;0.40;;;;;;;23.83;27.93;99893.22;5031920;28;20085;-81
2023/05/17 09:00:57;;;;;;;0.50;0.50;;;;;;;24.20;27.68;99906.59;5030691;28;20041;-80
2023/05/17 09:03:43;;;;;;;0.50;0.50;;;;;;;24.30;26.42;99890.94;5031383;28;20505;-81
2023/05/17 09:06:31;;;;;;;0.50;0.50;;;;;;;24.23;26.67;99894.97;5034481;28;20044;-80
2023/05/17 09:09:01;;;;;;;0.45;0.45;;;;;;;24.45;26.93;99901.63;5031261;28;20431;-79
2023/05/17 09:11:30;;;;;;;0.40;0.40;;;;;;;24.87;26.29;99902.16;5030057;28;20045;-82
2023/05/17 09:14:01;;;;;;;0.50;0.50;;;;;;;24.98;25.83;99897.97;5028743;28;20056;-80
2023/05/17 09:16:30;;;;;;;0.50;0.50;;;;;;;25.19;26.07;99891.91;4679539;28;10000682;-79
2023/05/17 09:18:58;;;;;;;0.50;0.50;;;;;;;25.57;25.52;99874.75;5026683;28;20053;-80
2023/05/17 09:21:26;;;;;;;0.50;0.50;;;;;;;25.79;24.91;99891.19;5027064;28;20049;-80
2023/05/17 09:23:54;;;;;;;0.50;0.50;;;;;;;25.66;25.06;99898.50;5027198;28;20505;-82
2023/05/17 09:26:25;;;;;;;0.50;0.50;;;;;;;25.92;25.16;99893.00;5016890;28;20123;-80
2023/05/17 09:28:57;;;;;;;0.50;0.50;;;;;;;26.03;24.64;99876.94;5027256;28;20401;-81
2023/05/17 09:31:27;;;;;;;0.50;0.50;;;;;;;26.33;24.70;99883.38;5025450;28;20064;-80
2023/05/17 09:33:58;;;;;;;0.50;0.50;;;;;;;26.63;23.73;99891.78;5024629;28;20050;-80
2023/05/17 09:36:25;;;;;;;0.50;0.50;;;;;;;26.40;24.23;99880.09;5022840;28;20053;-79
2023/05/17 09:38:57;;;;;;;0.50;0.50;;;;;;;26.34;23.96;99881.44;5027008;28;20064;-78
2023/05/17 09:41:26;;;;;;;0.47;0.47;;;;;;;26.67;24.45;99884.47;5030939;28;20049;-81
2023/05/17 09:44:00;;;;;;;0.40;0.40;;;;;;;27.36;23.36;99866.69;5028740;28;20051;-80
2023/05/17 09:46:44;;;;;;;0.50;0.50;;;;;;;27.54;22.83;99883.22;5024683;28;20860;-81
2023/05/17 09:49:11;;;;;;;0.40;0.40;;;;;;;27.49;22.91;99859.28;5025972;28;20121;-82
2023/05/17 09:51:47;;;;;;;0.45;0.45;;;;;;;27.44;23.37;99867.78;5026990;28;20048;-80
2023/05/17 09:54:16;;;;;;;0.50;0.50;;;;;;;27.50;22.74;99849.00;5025648;28;20617;-81
2023/05/17 09:56:44;;;;;;;0.40;0.40;;;;;;;28.03;22.13;99867.69;5025348;28;20875;-81
2023/05/17 09:59:15;;;;;;;0.40;0.40;;;;;;;28.30;21.98;99871.81;5026010;28;20143;-83
2023/05/17 10:01:43;;;;;;;0.40;0.40;;;;;;;28.27;21.81;99864.16;5024674;28;20534;-80
2023/05/17 10:04:12;;;;;;;0.50;0.50;;;;;;;27.43;22.66;99864.22;5017397;28;20049;-80
2023/05/17 10:06:40;;;;;;;0.40;0.40;;;;;;;27.61;22.75;99877.97;5006038;28;20701;-80
2023/05/17 10:09:19;;;;;;;0.50;0.50;;;;;;;28.77;21.80;99873.44;5005015;28;20080;-82
2023/05/17 10:11:47;;;;;;;0.40;0.40;;;;;;;27.95;22.61;99854.69;5007316;28;20048;-81
2023/05/17 10:14:32;;;;;;;0.50;0.50;;;;;;;28.45;22.47;99862.03;5007436;28;20480;-80
2023/05/17 10:17:01;;;;;;;0.40;0.40;;;;;;;28.68;21.99;99856.06;5018964;28;20140;-82
2023/05/17 10:19:29;;;;;;;0.50;0.50;;;;;;;29.40;21.90;99845.31;5009079;28;20487;-82
2023/05/17 10:21:57;;;;;;;0.43;0.43;;;;;;;29.80;20.69;99859.25;5025853;28;20060;-81
2023/05/17 10:24:45;;;;;;;0.50;0.50;;;;;;;29.31;21.58;99839.06;5026746;28;20064;-81
2023/05/17 10:27:12;;;;;;;0.43;0.43;;;;;;;28.17;22.34;99861.81;5025583;28;20046;-81
2023/05/17 10:29:40;;;;;;;0.50;0.50;;;;;;;27.47;23.15;99855.22;5026843;28;20561;-80
2023/05/17 10:32:09;;;;;;;0.50;0.50;;;;;;;28.12;23.20;99859.28;5022030;28;20041;-80
2023/05/17 10:34:38;;;;;;;0.50;0.50;;;;;;;29.14;21.55;99863.19;5017079;28;20071;-80
2023/05/17 10:37:06;;;;;;;0.40;0.40;;;;;;;28.42;22.10;99850.81;5026481;28;20492;-80
2023/05/17 10:39:37;;;;;;;0.40;0.40;;;;;;;28.89;21.40;99856.78;5008192;28;20123;-81
2023/05/17 10:42:07;;;;;;;0.40;0.40;;;;;;;28.62;21.86;99841.59;5041150;28;20498;-80
2023/05/17 10:44:41;;;;;;;0.45;0.45;;;;;;;28.82;21.79;99837.13;5025527;28;20471;-81
2023/05/17 10:47:10;;;;;;;0.40;0.40;;;;;;;28.79;21.27;99842.53;5021639;28;20497;-79
2023/05/17 10:49:40;;;;;;;0.45;0.45;;;;;;;29.10;21.24;99850.34;5015484;28;20609;-80
2023/05/17 10:52:13;;;;;;;0.40;0.40;;;;;;;28.64;21.59;99835.72;5039770;28;20057;-80
2023/05/17 10:54:42;;;;;;;0.40;0.40;;;;;;;29.51;20.58;99812.25;5019402;28;20072;-81
2023/05/17 10:57:34;;;;;;;0.47;0.47;;;;;;;29.62;20.57;99824.50;5020277;28;20100;-82
2023/05/17 11:00:19;;;;;;;0.50;0.50;;;;;;;30.57;19.96;99819.19;5046552;28;20126;-81
2023/05/17 11:02:47;;;;;;;0.40;0.40;;;;;;;31.08;19.26;99829.59;5021707;28;20180;-80
2023/05/17 11:05:23;;;;;;;0.40;0.40;;;;;;;30.84;19.43;99825.88;4996969;28;20050;-81
2023/05/17 11:07:50;;;;;;;0.40;0.40;;;;;;;30.27;19.98;99843.06;5030992;28;20088;-81
2023/05/17 11:10:18;;;;;;;0.40;0.40;;;;;;;29.42;20.51;99834.63;5033664;28;20049;-80
2023/05/17 11:12:52;;;;;;;0.40;0.40;;;;;;;30.03;19.41;99822.53;5027704;28;20053;-80
2023/05/17 11:15:26;;;;;;;0.40;0.40;;;;;;;30.39;19.55;99817.94;5015576;28;20513;-80
2023/05/17 11:17:56;;;;;;;0.40;0.40;;;;;;;30.75;18.88;99810.47;5006632;28;20068;-82
2023/05/17 11:20:24;;;;;;;0.40;0.40;;;;;;;30.51;19.41;99820.66;5031699;28;20496;-81
2023/05/17 11:23:00;;;;;;;0.43;0.43;;;;;;;30.20;19.89;99822.19;5023508;28;20140;-80
2023/05/17 11:25:34;;;;;;;0.40;0.40;;;;;;;30.62;19.71;99816.16;5033014;28;20041;-81
2023/05/17 11:28:23;;;;;;;0.40;0.40;;;;;;;30.67;19.66;99810.28;5032608;28;20049;-81
2023/05/17 11:30:59;;;;;;;0.40;0.40;;;;;;;30.86;19.49;99829.09;5032094;28;20044;-81
2023/05/17 11:33:37;;;;;;;0.40;0.40;;;;;;;30.81;19.39;99814.59;5032735;28;20094;-81
2023/05/17 11:36:18;;;;;;;0.40;0.40;;;;;;;30.64;19.79;99813.81;5033166;28;20487;-81
2023/05/17 11:38:50;;;;;;;0.40;0.40;;;;;;;31.38;19.03;99784.47;5033364;28;20049;-80
2023/05/17 11:41:36;;;;;;;0.40;0.40;;;;;;;31.10;18.83;99780.69;5031524;28;20049;-80
2023/05/17 11:44:28;;;;;;;0.40;0.40;;;;;;;30.13;20.02;99796.97;5047206;28;20057;-81
2023/05/17 11:47:03;;;;;;;0.40;0.40;;;;;;;31.35;18.61;99774.84;5031520;28;20076;-81
2023/05/17 11:49:32;;;;;;;0.40;0.40;;;;;;;31.80;18.23;99790.13;5032284;28;20057;-82
2023/05/17 11:52:04;;;;;;;0.40;0.40;;;;;;;32.35;17.76;99793.56;5032857;28;20049;-80
2023/05/17 11:54:32;;;;;;;0.40;0.40;;;;;;;32.11;17.72;99793.94;5032666;28;20860;-80
2023/05/17 11:57:01;;;;;;;0.40;0.40;;;;;;;32.84;17.46;99771.63;5032940;28;20049;-81